createdAt,value
2022-11-14T00:01:21.532Z,15.93
2022-11-14T00:03:51.458Z,15.95
2022-11-14T00:06:21.217Z,15.63
2022-11-14T00:08:49.063Z,14.73
2022-11-14T00:11:16.979Z,15.48
2022-11-14T00:13:45.185Z,16.65
2022-11-14T00:16:13.090Z,15.40
2022-11-14T00:18:40.997Z,15.38
2022-11-14T00:21:08.937Z,15.85
2022-11-14T00:23:38.162Z,15.27
2022-11-14T00:26:06.032Z,14.57
2022-11-14T00:28:34.118Z,16.23
2022-11-14T00:31:02.105Z,15.40
2022-11-14T00:33:29.977Z,16.30
2022-11-14T00:35:58.237Z,14.55
2022-11-14T00:38:26.215Z,15.60
2022-11-14T00:40:55.706Z,14.88
2022-11-14T00:43:23.681Z,17.27
2022-11-14T00:45:51.601Z,15.27
2022-11-14T00:48:19.577Z,15.43
2022-11-14T00:50:47.599Z,16.70
2022-11-14T00:53:15.632Z,15.57
2022-11-14T00:55:44.691Z,15.68
2022-11-14T00:58:14.004Z,16.02
2022-11-14T01:00:42.046Z,15.77
2022-11-14T01:03:10.151Z,17.23
2022-11-14T01:05:42.325Z,16.33
2022-11-14T01:08:10.401Z,17.27
2022-11-14T01:10:40.961Z,16.95
2022-11-14T01:13:09.317Z,16.77
2022-11-14T01:15:41.613Z,16.20
2022-11-14T01:18:10.964Z,15.98
2022-11-14T01:20:40.191Z,16.65
2022-11-14T01:23:08.157Z,16.08
2022-11-14T01:25:36.647Z,15.40
2022-11-14T01:28:07.511Z,17.65
2022-11-14T01:30:35.667Z,16.77
2022-11-14T01:33:05.588Z,16.23
2022-11-14T01:35:34.439Z,15.93
2022-11-14T01:38:02.403Z,16.52
2022-11-14T01:40:30.694Z,15.95
2022-11-14T01:43:30.397Z,16.67
2022-11-14T01:46:01.327Z,14.98
2022-11-14T01:48:36.059Z,16.38
2022-11-14T01:51:13.917Z,14.77
2022-11-14T01:53:42.409Z,15.20
2022-11-14T01:56:14.154Z,16.13
2022-11-14T01:58:46.985Z,14.73
2022-11-14T02:01:14.959Z,14.20
2022-11-14T02:03:46.901Z,17.85
2022-11-14T02:06:17.908Z,17.45
2022-11-14T02:08:46.407Z,18.70
2022-11-14T02:11:14.354Z,15.77
2022-11-14T02:13:42.318Z,18.05
2022-11-14T02:16:10.353Z,15.73
2022-11-14T02:18:38.323Z,19.77
2022-11-14T02:21:07.889Z,15.60
2022-11-14T02:23:35.806Z,16.77
2022-11-14T02:26:03.726Z,15.25
2022-11-14T02:28:31.899Z,16.40
2022-11-14T02:31:00.023Z,15.52
2022-11-14T02:33:28.162Z,14.82
2022-11-14T02:35:56.189Z,15.73
2022-11-14T02:38:25.474Z,14.13
2022-11-14T02:40:53.419Z,14.98
2022-11-14T02:43:21.361Z,15.30
2022-11-14T02:45:49.282Z,15.23
2022-11-14T02:48:17.177Z,15.52
2022-11-14T02:50:45.137Z,15.07
2022-11-14T02:53:13.009Z,16.10
2022-11-14T02:55:42.234Z,14.93
2022-11-14T02:58:10.113Z,16.27
2022-11-14T03:00:53.274Z,15.40
2022-11-14T03:03:25.985Z,16.60
2022-11-14T03:05:54.337Z,16.98
2022-11-14T03:08:22.322Z,16.17
2022-11-14T03:10:51.572Z,16.73
2022-11-14T03:13:19.589Z,14.90
2022-11-14T03:15:47.517Z,16.08
2022-11-14T03:18:15.385Z,16.23
2022-11-14T03:20:43.269Z,15.82
2022-11-14T03:23:11.128Z,16.52
2022-11-14T03:25:39.043Z,13.90
2022-11-14T03:28:08.288Z,16.90
2022-11-14T03:30:36.176Z,13.80
2022-11-14T03:33:04.040Z,14.68
2022-11-14T03:35:31.923Z,13.75
2022-11-14T03:37:59.770Z,15.55
2022-11-14T03:40:27.682Z,13.98
2022-11-14T03:42:57.837Z,12.82
2022-11-14T03:45:27.091Z,13.02
2022-11-14T03:47:56.244Z,13.38
2022-11-14T03:50:24.391Z,12.75
2022-11-14T03:52:52.325Z,12.68
2022-11-14T03:55:20.227Z,13.82
2022-11-14T03:57:48.093Z,13.05
2022-11-14T04:00:16.456Z,12.48
2022-11-14T04:02:45.661Z,12.80
2022-11-14T04:05:13.559Z,11.93
2022-11-14T04:07:41.476Z,12.43
2022-11-14T04:10:09.974Z,12.73
2022-11-14T04:12:37.839Z,11.52
2022-11-14T04:15:06.340Z,12.75
2022-11-14T04:17:39.511Z,12.00
2022-11-14T04:20:10.457Z,12.88
2022-11-14T04:22:38.607Z,12.30
2022-11-14T04:25:07.439Z,10.63
2022-11-14T04:27:35.400Z,11.23
2022-11-14T04:30:03.363Z,12.25
2022-11-14T04:32:31.271Z,11.55
2022-11-14T04:34:59.362Z,11.70
2022-11-14T04:37:28.598Z,11.18
2022-11-14T04:39:58.689Z,12.07
2022-11-14T04:42:26.722Z,11.45
2022-11-14T04:44:54.708Z,9.93
2022-11-14T04:47:22.687Z,13.05
2022-11-14T04:49:50.706Z,12.07
2022-11-14T04:52:18.826Z,13.23
2022-11-14T04:54:48.165Z,12.75
2022-11-14T04:57:16.528Z,12.82
2022-11-14T04:59:44.758Z,12.77
2022-11-14T05:02:12.690Z,12.00
2022-11-14T05:04:40.575Z,13.73
2022-11-14T05:07:08.528Z,13.98
2022-11-14T05:09:37.242Z,15.00
2022-11-14T05:12:07.468Z,14.27
2022-11-14T05:14:35.355Z,13.02
2022-11-14T05:17:03.267Z,13.13
2022-11-14T05:19:31.266Z,11.43
2022-11-14T05:21:59.152Z,12.00
2022-11-14T05:24:28.510Z,10.93
2022-11-14T05:26:56.391Z,11.75
2022-11-14T05:29:25.677Z,11.15
2022-11-14T05:31:53.640Z,11.07
2022-11-14T05:34:21.545Z,13.13
2022-11-14T05:36:49.502Z,12.20
2022-11-14T05:39:17.528Z,12.05
2022-11-14T05:41:45.529Z,12.73
2022-11-14T05:44:13.545Z,12.02
2022-11-14T05:46:43.077Z,10.70
2022-11-14T05:49:10.952Z,10.27
2022-11-14T05:51:38.839Z,12.70
2022-11-14T05:54:07.001Z,12.35
2022-11-14T05:56:34.845Z,12.90
2022-11-14T05:59:02.835Z,12.65
2022-11-14T06:01:30.801Z,13.57
2022-11-14T06:04:00.110Z,12.52
2022-11-14T06:06:28.068Z,12.85
2022-11-14T06:08:56.181Z,12.13
2022-11-14T06:11:24.330Z,13.52
2022-11-14T06:13:52.278Z,11.45
2022-11-14T06:16:20.880Z,12.88
2022-11-14T06:18:49.190Z,12.63
2022-11-14T06:21:21.232Z,13.95
2022-11-14T06:23:49.828Z,13.27
2022-11-14T06:26:23.274Z,14.57
2022-11-14T06:28:52.370Z,14.73
2022-11-14T06:31:21.360Z,13.55
2022-11-14T06:33:49.643Z,14.88
2022-11-14T06:36:19.191Z,12.27
2022-11-14T06:38:47.220Z,12.90
2022-11-14T06:41:17.097Z,11.88
2022-11-14T06:43:46.802Z,13.20
2022-11-14T06:46:16.801Z,14.05
2022-11-14T06:48:45.900Z,12.98
2022-11-14T06:51:14.724Z,13.30
2022-11-14T06:53:44.497Z,14.80
2022-11-14T06:56:13.755Z,13.10
2022-11-14T06:58:44.058Z,14.63
2022-11-14T07:01:14.235Z,14.02
2022-11-14T07:03:42.760Z,14.15
2022-11-14T07:06:12.697Z,12.82
2022-11-14T07:08:40.631Z,12.82
2022-11-14T07:11:11.949Z,12.15
2022-11-14T07:13:40.301Z,12.73
2022-11-14T07:16:08.791Z,13.10
2022-11-14T07:18:36.735Z,13.07
2022-11-14T07:21:06.930Z,12.95
2022-11-14T07:23:36.422Z,14.13
2022-11-14T07:26:07.879Z,13.25
2022-11-14T07:28:38.707Z,14.52
2022-11-14T07:31:08.422Z,12.40
2022-11-14T07:33:36.470Z,13.38
2022-11-14T07:36:04.804Z,13.77
2022-11-14T07:38:33.604Z,13.80
2022-11-14T07:41:03.087Z,13.77
2022-11-14T07:43:31.184Z,13.88
2022-11-14T07:46:02.328Z,12.63
2022-11-14T07:48:30.746Z,13.93
2022-11-14T07:51:00.917Z,12.73
2022-11-14T07:53:30.126Z,13.75
2022-11-14T07:55:58.458Z,12.57
2022-11-14T07:58:26.441Z,10.82
2022-11-14T08:00:54.453Z,11.07
2022-11-14T08:03:23.770Z,9.57
2022-11-14T08:05:51.637Z,9.75
2022-11-14T08:08:19.530Z,9.82
2022-11-14T08:10:47.384Z,9.38
2022-11-14T08:13:31.611Z,9.65
2022-11-14T08:16:01.037Z,8.70
2022-11-14T08:18:30.836Z,8.07
2022-11-14T08:20:59.164Z,7.15
2022-11-14T08:23:27.054Z,7.35
2022-11-14T08:25:55.024Z,6.30
2022-11-14T08:28:22.997Z,6.20
2022-11-14T08:30:50.845Z,5.88
2022-11-14T08:33:18.737Z,5.55
2022-11-14T08:35:48.253Z,5.15
2022-11-14T08:38:16.226Z,4.13
2022-11-14T08:40:44.167Z,4.53
2022-11-14T08:43:12.095Z,3.50
2022-11-14T08:45:40.024Z,3.92
2022-11-14T08:48:07.993Z,3.45
2022-11-14T08:50:35.921Z,3.70
2022-11-14T08:53:05.175Z,3.42
2022-11-14T08:55:33.076Z,3.00
2022-11-14T08:58:01.091Z,2.53
2022-11-14T09:00:29.118Z,2.25
2022-11-14T09:02:57.140Z,3.10
2022-11-14T09:05:25.040Z,3.97
2022-11-14T09:07:52.915Z,3.25
2022-11-14T09:10:22.324Z,2.75
2022-11-14T09:12:56.652Z,2.80
2022-11-14T09:15:24.982Z,3.22
2022-11-14T09:17:54.574Z,3.00
2022-11-14T09:20:25.918Z,2.60
2022-11-14T09:22:59.611Z,2.70
2022-11-14T09:25:29.139Z,3.28
2022-11-14T09:27:57.635Z,3.03
2022-11-14T09:30:25.632Z,3.13
2022-11-14T09:32:53.716Z,2.67
2022-11-14T09:35:21.666Z,3.38
2022-11-14T09:37:49.785Z,2.95
2022-11-14T09:40:18.011Z,2.85
2022-11-14T09:43:11.115Z,3.17
2022-11-14T09:45:43.191Z,3.53
2022-11-14T09:48:16.145Z,3.50
2022-11-14T09:50:49.354Z,2.95
2022-11-14T09:53:24.935Z,2.70
2022-11-14T09:55:57.150Z,3.33
2022-11-14T09:58:28.370Z,3.47
2022-11-14T10:01:06.495Z,2.78
2022-11-14T10:03:50.974Z,2.70
2022-11-14T10:06:25.743Z,2.50
2022-11-14T10:09:08.964Z,2.70
2022-11-14T10:11:43.230Z,2.20
2022-11-14T10:14:44.206Z,2.03
2022-11-14T10:17:24.783Z,1.90
2022-11-14T10:20:00.930Z,2.10
2022-11-14T10:22:49.838Z,2.00
2022-11-14T10:25:25.175Z,1.67
2022-11-14T10:28:05.391Z,1.70
2022-11-14T10:30:41.703Z,1.60
2022-11-14T10:33:21.254Z,2.00
2022-11-14T10:35:54.212Z,2.33
2022-11-14T10:38:28.788Z,2.13
2022-11-14T10:41:01.762Z,1.67
2022-11-14T10:43:35.072Z,1.80
2022-11-14T10:46:09.171Z,2.05
2022-11-14T10:48:40.147Z,1.83
2022-11-14T10:51:13.999Z,2.13
2022-11-14T10:53:52.950Z,1.90
2022-11-14T10:56:20.850Z,2.10
2022-11-14T10:58:50.072Z,1.95
2022-11-14T11:01:37.696Z,2.30
2022-11-14T11:04:21.608Z,2.20
2022-11-14T11:06:51.210Z,2.05
2022-11-14T11:09:44.885Z,2.00
2022-11-14T11:12:17.727Z,1.70
2022-11-14T11:14:46.725Z,2.05
2022-11-14T11:17:29.537Z,2.25
2022-11-14T11:20:26.426Z,2.00
2022-11-14T11:23:04.374Z,2.05
2022-11-14T11:25:34.070Z,1.70
2022-11-14T11:28:06.826Z,1.98
2022-11-14T11:30:35.137Z,1.50
2022-11-14T11:33:25.364Z,1.70
2022-11-14T11:35:57.211Z,1.80
2022-11-14T11:38:27.865Z,1.50
2022-11-14T11:41:01.454Z,2.03
2022-11-14T11:43:40.088Z,1.80
2022-11-14T11:46:16.694Z,1.95
2022-11-14T11:48:49.184Z,1.60
2022-11-14T11:51:20.802Z,2.08
2022-11-14T11:53:57.743Z,1.88
2022-11-14T11:56:31.031Z,2.05
2022-11-14T11:59:06.797Z,1.83
2022-11-14T12:01:34.793Z,1.80
2022-11-14T12:04:04.348Z,1.67
2022-11-14T12:06:41.181Z,1.60
2022-11-14T12:09:18.847Z,1.35
2022-11-14T12:11:52.399Z,1.65
2022-11-14T12:14:44.214Z,1.40
2022-11-14T12:17:44.620Z,1.55
2022-11-14T12:20:30.352Z,1.48
2022-11-14T12:23:35.225Z,1.60
2022-11-14T12:26:11.630Z,1.35
2022-11-14T12:29:04.109Z,1.23
2022-11-14T12:31:35.088Z,1.52
2022-11-14T12:34:08.459Z,1.60
2022-11-14T12:36:39.361Z,1.67
2022-11-14T12:39:07.293Z,1.48
2022-11-14T12:41:37.987Z,1.52
2022-11-14T12:44:19.896Z,1.33
2022-11-14T12:47:14.447Z,1.50
2022-11-14T12:50:01.358Z,1.38
2022-11-14T12:52:51.042Z,1.23
2022-11-14T12:55:56.676Z,1.92
2022-11-14T12:58:48.426Z,1.67
2022-11-14T13:01:38.607Z,1.50
2022-11-14T13:04:20.466Z,1.30
2022-11-14T13:07:02.058Z,1.50
2022-11-14T13:09:40.734Z,1.90
2022-11-14T13:12:58.282Z,1.70
2022-11-14T13:15:49.492Z,1.40
2022-11-14T13:18:41.572Z,2.17
2022-11-14T13:21:42.302Z,2.00
2022-11-14T13:24:13.727Z,2.47
2022-11-14T13:26:48.652Z,1.80
2022-11-14T13:29:59.948Z,1.70
2022-11-14T13:33:07.706Z,1.83
2022-11-14T13:35:49.949Z,2.03
2022-11-14T13:38:49.227Z,1.92
2022-11-14T13:41:47.397Z,2.00
2022-11-14T13:44:56.945Z,2.03
2022-11-14T13:47:37.730Z,2.00
2022-11-14T13:50:08.885Z,2.67
2022-11-14T13:52:43.011Z,2.20
2022-11-14T13:55:20.816Z,2.00
2022-11-14T13:58:03.422Z,2.50
2022-11-14T14:00:53.810Z,2.83
2022-11-14T14:03:37.560Z,2.08
2022-11-14T14:06:22.404Z,2.03
2022-11-14T14:09:02.844Z,1.73
2022-11-14T14:11:47.694Z,2.10
2022-11-14T14:14:36.859Z,2.60
2022-11-14T14:17:12.800Z,3.15
2022-11-14T14:19:56.788Z,2.20
2022-11-14T14:22:37.525Z,2.33
2022-11-14T14:25:14.668Z,2.40
2022-11-14T14:27:55.640Z,2.30
2022-11-14T14:30:24.291Z,2.40
2022-11-14T14:33:12.535Z,2.38
2022-11-14T14:35:49.738Z,2.35
2022-11-14T14:38:25.652Z,2.85
2022-11-14T14:40:56.014Z,2.35
2022-11-14T14:43:28.058Z,2.72
2022-11-14T14:45:56.478Z,2.25
2022-11-14T14:48:29.794Z,2.40
2022-11-14T14:50:59.897Z,2.90
2022-11-14T14:53:29.878Z,2.80
2022-11-14T14:55:59.673Z,2.50
2022-11-14T14:58:30.550Z,2.22
2022-11-14T15:01:01.133Z,2.50
2022-11-14T15:03:36.734Z,2.97
2022-11-14T15:06:09.375Z,3.33
2022-11-14T15:08:39.553Z,2.75
2022-11-14T15:11:08.071Z,2.65
2022-11-14T15:13:38.620Z,3.33
2022-11-14T15:16:07.736Z,3.40
2022-11-14T15:18:37.850Z,3.30
2022-11-14T15:21:17.234Z,2.88
2022-11-14T15:23:45.201Z,2.72
2022-11-14T15:26:16.694Z,4.03
2022-11-14T15:28:44.952Z,3.00
2022-11-14T15:31:19.802Z,3.20
2022-11-14T15:34:02.640Z,3.03
2022-11-14T15:36:30.530Z,3.55
2022-11-14T15:39:03.936Z,3.58
2022-11-14T15:41:32.621Z,3.55
2022-11-14T15:44:03.093Z,3.50
2022-11-14T15:46:46.622Z,3.22
2022-11-14T15:49:22.643Z,3.67
2022-11-14T15:51:53.149Z,3.97
2022-11-14T15:54:27.522Z,3.95
2022-11-14T15:56:57.462Z,4.20
2022-11-14T15:59:25.995Z,4.93
2022-11-14T16:01:57.538Z,3.20
2022-11-14T16:04:31.058Z,3.20
2022-11-14T16:06:59.048Z,3.30
2022-11-14T16:09:26.980Z,3.13
2022-11-14T16:11:54.868Z,3.40
2022-11-14T16:14:22.863Z,3.58
2022-11-14T16:16:50.742Z,3.40
2022-11-14T16:19:18.709Z,2.88
2022-11-14T16:21:47.980Z,2.97
2022-11-14T16:24:18.119Z,4.00
2022-11-14T16:26:46.424Z,3.72
2022-11-14T16:29:14.487Z,3.58
2022-11-14T16:31:42.455Z,3.58
2022-11-14T16:34:14.973Z,4.00
2022-11-14T16:36:45.167Z,3.67
2022-11-14T16:39:14.428Z,3.30
2022-11-14T16:41:42.691Z,3.42
2022-11-14T16:44:15.722Z,3.80
2022-11-14T16:46:43.957Z,3.38
2022-11-14T16:49:14.996Z,3.60
2022-11-14T16:51:48.422Z,3.78
2022-11-14T16:54:18.961Z,3.80
2022-11-14T16:56:47.236Z,3.67
2022-11-14T16:59:15.190Z,4.10
2022-11-14T17:01:43.344Z,4.20
2022-11-14T17:04:11.361Z,3.80
2022-11-14T17:06:39.685Z,4.15
2022-11-14T17:09:07.742Z,4.35
2022-11-14T17:11:37.002Z,4.28
2022-11-14T17:14:04.942Z,3.85
2022-11-14T17:16:32.831Z,3.88
2022-11-14T17:19:00.894Z,4.40
2022-11-14T17:21:29.040Z,4.20
2022-11-14T17:23:57.453Z,4.82
2022-11-14T17:26:25.367Z,4.78
2022-11-14T17:28:54.904Z,5.57
2022-11-14T17:31:22.974Z,4.28
2022-11-14T17:33:55.392Z,4.82
2022-11-14T17:36:24.137Z,4.78
2022-11-14T17:38:52.255Z,4.60
2022-11-14T17:41:20.502Z,4.75
2022-11-14T17:43:56.489Z,4.50
2022-11-14T17:46:24.398Z,4.13
2022-11-14T17:48:52.299Z,4.82
2022-11-14T17:51:20.234Z,4.45
2022-11-14T17:53:48.167Z,4.68
2022-11-14T17:56:17.415Z,4.22
2022-11-14T17:58:46.267Z,5.15
2022-11-14T18:01:17.305Z,4.53
2022-11-14T18:03:45.429Z,4.97
2022-11-14T18:06:15.243Z,4.40
2022-11-14T18:08:43.567Z,4.10
2022-11-14T18:11:14.360Z,4.30
2022-11-14T18:13:42.705Z,4.50
2022-11-14T18:16:13.849Z,4.53
2022-11-14T18:18:43.302Z,4.75
2022-11-14T18:21:13.761Z,3.90
2022-11-14T18:23:41.997Z,4.85
2022-11-14T18:26:11.335Z,4.78
2022-11-14T18:28:39.333Z,4.35
2022-11-14T18:31:10.524Z,4.35
2022-11-14T18:33:38.777Z,4.18
2022-11-14T18:36:11.490Z,4.00
2022-11-14T18:38:39.478Z,4.43
2022-11-14T18:41:10.126Z,4.03
2022-11-14T18:43:38.044Z,4.13
2022-11-14T18:46:10.868Z,4.18
2022-11-14T18:48:40.239Z,3.63
2022-11-14T18:51:12.693Z,4.55
2022-11-14T18:53:40.668Z,3.70
2022-11-14T18:56:10.622Z,4.10
2022-11-14T18:58:39.764Z,4.00
2022-11-14T19:01:12.565Z,4.35
2022-11-14T19:03:40.753Z,3.70
2022-11-14T19:06:12.299Z,3.67
2022-11-14T19:08:40.617Z,3.25
2022-11-14T19:11:30.760Z,3.65
2022-11-14T19:14:01.597Z,3.88
2022-11-14T19:16:31.104Z,3.50
2022-11-14T19:18:59.055Z,3.67
2022-11-14T19:21:28.951Z,4.43
2022-11-14T19:23:57.235Z,3.42
2022-11-14T19:26:25.350Z,3.28
2022-11-14T19:28:53.557Z,3.50
2022-11-14T19:31:22.678Z,3.30
2022-11-14T19:33:50.976Z,2.95
2022-11-14T19:36:38.532Z,3.80
2022-11-14T19:39:10.493Z,3.03
2022-11-14T19:41:38.477Z,2.78
2022-11-14T19:44:06.590Z,2.97
2022-11-14T19:46:36.690Z,2.72
2022-11-14T19:49:05.444Z,2.95
2022-11-14T19:51:33.799Z,3.15
2022-11-14T19:54:03.029Z,2.78
2022-11-14T19:56:32.236Z,2.78
2022-11-14T19:59:02.669Z,2.67
2022-11-14T20:01:30.657Z,2.90
2022-11-14T20:04:00.180Z,2.42
2022-11-14T20:06:29.986Z,2.85
2022-11-14T20:08:59.241Z,2.10
2022-11-14T20:11:29.005Z,3.55
2022-11-14T20:13:59.218Z,2.97
2022-11-14T20:16:29.312Z,2.97
2022-11-14T20:18:59.397Z,2.78
2022-11-14T20:21:29.158Z,2.63
2022-11-14T20:23:57.243Z,2.75
2022-11-14T20:26:25.698Z,2.40
2022-11-14T20:28:54.655Z,2.90
2022-11-14T20:31:25.493Z,3.22
2022-11-14T20:33:54.913Z,2.92
2022-11-14T20:36:25.035Z,2.22
2022-11-14T20:38:54.039Z,2.50
2022-11-14T20:41:22.445Z,2.60
2022-11-14T20:43:50.635Z,3.72
2022-11-14T20:46:20.173Z,2.58
2022-11-14T20:48:50.428Z,2.55
2022-11-14T20:51:19.863Z,2.60
2022-11-14T20:53:48.935Z,2.78
2022-11-14T20:56:17.875Z,2.92
2022-11-14T20:58:47.168Z,2.75
2022-11-14T21:01:16.131Z,3.13
2022-11-14T21:03:44.197Z,2.92
2022-11-14T21:06:15.082Z,3.08
2022-11-14T21:08:43.668Z,3.40
2022-11-14T21:11:15.792Z,2.67
2022-11-14T21:13:58.770Z,2.83
2022-11-14T21:16:30.512Z,2.45
2022-11-14T21:18:58.637Z,2.47
2022-11-14T21:21:28.632Z,2.85
2022-11-14T21:23:57.016Z,2.92
2022-11-14T21:26:26.884Z,2.55
2022-11-14T21:28:56.624Z,3.20
2022-11-14T21:31:26.275Z,2.88
2022-11-14T21:33:57.089Z,3.03
2022-11-14T21:39:17.461Z,3.20
2022-11-14T21:41:48.182Z,3.10
2022-11-14T21:44:17.863Z,2.22
2022-11-14T21:46:48.435Z,2.08
2022-11-14T21:49:16.823Z,2.70
2022-11-14T21:51:47.077Z,2.25
2022-11-14T21:54:15.089Z,2.50
2022-11-14T21:56:43.189Z,3.05
2022-11-14T21:59:15.480Z,2.92
2022-11-14T22:02:02.736Z,2.58
2022-11-14T22:04:31.641Z,3.35
2022-11-14T22:07:02.596Z,2.53
2022-11-14T22:09:31.075Z,2.67
2022-11-14T22:11:59.406Z,3.08
2022-11-14T22:14:27.351Z,3.10
2022-11-14T22:16:55.285Z,2.47
2022-11-14T22:19:23.369Z,2.95
2022-11-14T22:21:51.348Z,2.67
2022-11-14T22:24:20.581Z,2.60
2022-11-14T22:26:48.477Z,2.40
2022-11-14T22:29:16.614Z,2.70
2022-11-14T22:31:44.510Z,2.65
2022-11-14T22:34:12.664Z,2.47
2022-11-14T22:36:40.756Z,3.38
2022-11-14T22:39:08.626Z,2.63
2022-11-14T22:41:38.003Z,2.70
2022-11-14T22:44:06.221Z,3.97
2022-11-14T22:46:34.114Z,2.60
2022-11-14T22:49:03.800Z,2.58
2022-11-14T22:51:32.059Z,2.60
2022-11-14T22:54:00.039Z,3.00
2022-11-14T22:56:29.799Z,2.63
2022-11-14T22:59:00.340Z,2.50
2022-11-14T23:01:31.002Z,2.60
2022-11-14T23:04:00.960Z,3.20
2022-11-14T23:06:29.712Z,2.95
2022-11-14T23:08:58.322Z,2.88
2022-11-14T23:11:29.119Z,2.67
2022-11-14T23:13:59.774Z,3.17
2022-11-14T23:16:29.729Z,3.47
2022-11-14T23:19:00.115Z,3.28
2022-11-14T23:21:30.367Z,3.83
2022-11-14T23:23:59.948Z,4.20
2022-11-14T23:26:29.007Z,3.88
2022-11-14T23:28:58.475Z,3.92
2022-11-14T23:31:26.999Z,3.88
2022-11-14T23:33:57.704Z,3.40
2022-11-14T23:36:25.794Z,3.65
2022-11-14T23:38:54.049Z,3.65
2022-11-14T23:41:23.456Z,3.92
2022-11-14T23:43:51.354Z,3.33
2022-11-14T23:46:20.620Z,3.80
2022-11-14T23:48:48.748Z,3.47
2022-11-14T23:51:17.529Z,4.18
2022-11-14T23:53:46.816Z,3.90
2022-11-14T23:56:15.408Z,3.92
2022-11-14T23:58:43.712Z,4.07
